Time;durP1;ratioP1;P1;durP2;ratioP2;P2;SDS_P1;SDS_P2;PMS_P1;PMS_P2;Temp;Humidity;BMP_temperature;BMP_pressure;BME280_temperature;BME280_humidity;BME280_pressure;Samples;Min_cycle;Max_cycle;Signal;HPM_P1;HPM_P2
2022/11/21 00:00:49;;;;;;;19.88;12.02;;;-0.30;99.90;;;-2.07;100.00;99618.69;4820563;29;21087;-73
2022/11/21 00:03:15;;;;;;;22.08;13.23;;;-0.30;99.90;;;-2.11;100.00;99604.78;4820267;29;20030;-72
2022/11/21 00:05:45;;;;;;;23.90;13.30;;;-0.20;99.90;;;-2.04;100.00;99605.81;4821056;29;20062;-73
2022/11/21 00:08:14;;;;;;;23.02;13.15;;;-0.20;99.90;;;-1.99;100.00;99602.66;4824544;29;20082;-73
2022/11/21 00:10:40;;;;;;;22.73;12.45;;;-0.20;99.90;;;-1.98;100.00;99599.00;4820452;29;20045;-73
2022/11/21 00:13:12;;;;;;;24.67;12.65;;;-0.20;99.90;;;-1.95;100.00;99604.00;4821184;29;20443;-73
2022/11/21 00:15:38;;;;;;;28.77;13.80;;;-0.20;99.90;;;-1.96;100.00;99601.53;4820263;29;20045;-73
2022/11/21 00:18:04;;;;;;;22.65;13.30;;;-0.10;99.90;;;-1.96;100.00;99602.34;4820219;29;20038;-72
2022/11/21 00:20:31;;;;;;;23.23;12.75;;;-0.20;99.90;;;-1.93;100.00;99609.22;4820862;29;20045;-71
2022/11/21 00:22:56;;;;;;;27.20;13.60;;;-0.10;99.90;;;-1.97;100.00;99600.66;4820117;29;20051;-71
2022/11/21 00:25:22;;;;;;;23.02;13.23;;;-0.10;99.90;;;-2.00;100.00;99608.16;4820180;29;20035;-72
2022/11/21 00:27:48;;;;;;;23.70;12.32;;;-0.20;99.90;;;-2.04;100.00;99594.31;4819953;29;20045;-72
2022/11/21 00:30:14;;;;;;;23.73;12.02;;;-0.20;99.90;;;-1.98;100.00;99592.81;4819869;29;20045;-72
2022/11/21 00:32:40;;;;;;;25.38;13.43;;;-0.20;99.90;;;-1.99;100.00;99594.66;4820155;29;20034;-72
2022/11/21 00:35:06;;;;;;;23.45;13.35;;;-0.10;99.90;;;-1.98;100.00;99590.97;4820021;29;20510;-73
2022/11/21 00:37:33;;;;;;;22.05;12.38;;;-0.10;99.90;;;-1.99;100.00;99594.66;4819907;29;20035;-73
2022/11/21 00:39:59;;;;;;;25.05;12.75;;;-0.10;99.90;;;-2.05;100.00;99590.78;4824329;29;20125;-73
2022/11/21 00:42:25;;;;;;;24.77;12.93;;;-0.20;99.90;;;-2.02;100.00;99597.66;4819927;29;20126;-73
2022/11/21 00:44:51;;;;;;;27.58;13.68;;;-0.20;99.90;;;-2.02;100.00;99598.47;4820007;29;20046;-72
2022/11/21 00:47:16;;;;;;;27.63;14.13;;;-0.20;99.90;;;-1.98;100.00;99601.66;4819995;29;20109;-72
2022/11/21 00:49:42;;;;;;;25.00;13.00;;;-0.20;99.90;;;-1.97;100.00;99595.31;4833383;29;20072;-73
2022/11/21 00:52:08;;;;;;;24.45;13.13;;;-0.20;99.90;;;-2.02;100.00;99593.13;4820226;29;20035;-72
2022/11/21 00:54:34;;;;;;;22.88;12.18;;;-0.20;99.90;;;-2.02;100.00;99597.66;4819825;29;20041;-73
2022/11/21 00:56:59;;;;;;;25.10;13.25;;;-0.20;99.90;;;-2.08;100.00;99585.75;4819947;29;20042;-73
2022/11/21 00:59:25;;;;;;;23.60;13.32;;;-0.20;99.90;;;-2.02;100.00;99595.78;4820020;29;20053;-73
2022/11/21 01:01:51;;;;;;;24.48;13.10;;;-0.20;99.90;;;-2.01;100.00;99596.66;4819638;29;20042;-73
2022/11/21 01:04:17;;;;;;;22.73;12.57;;;-0.20;99.90;;;-2.01;100.00;99596.66;4819691;29;20042;-73
2022/11/21 01:06:42;;;;;;;26.40;13.18;;;-0.20;99.90;;;-2.05;100.00;99579.25;4819300;29;20041;-72
2022/11/21 01:09:08;;;;;;;25.85;12.98;;;-0.20;99.90;;;-1.98;100.00;99590.97;4819485;29;20034;-73
2022/11/21 01:11:34;;;;;;;24.02;12.63;;;-0.20;99.90;;;-1.97;100.00;99584.63;4820284;29;20482;-71
2022/11/21 01:14:00;;;;;;;23.63;13.10;;;-0.20;99.90;;;-1.96;100.00;99588.97;4819555;29;20034;-71
2022/11/21 01:16:27;;;;;;;24.10;12.85;;;-0.20;99.90;;;-1.98;100.00;99582.94;4818835;29;20087;-72
2022/11/21 01:18:54;;;;;;;24.42;13.00;;;-0.20;99.90;;;-1.99;100.00;99585.78;4824530;29;20049;-72
2022/11/21 01:21:30;;;;;;;20.70;12.13;;;-0.20;99.90;;;-1.97;100.00;99589.97;4819577;29;20057;-71
2022/11/21 01:24:00;;;;;;;22.00;12.57;;;-0.20;99.90;;;-1.97;100.00;99587.31;4819584;29;20045;-71
2022/11/21 01:26:28;;;;;;;23.20;12.13;;;-0.20;99.90;;;-1.92;100.00;99584.97;4819589;29;20532;-71
2022/11/21 01:28:54;;;;;;;21.33;13.07;;;-0.10;99.90;;;-1.95;100.00;99577.28;4819276;29;20402;-71
2022/11/21 01:31:24;;;;;;;21.83;12.27;;;-0.20;99.90;;;-1.97;100.00;99575.78;4819429;29;20033;-71
2022/11/21 01:33:50;;;;;;;23.50;13.02;;;-0.20;99.90;;;-2.03;100.00;99567.38;4818877;29;20532;-71
2022/11/21 01:36:24;;;;;;;23.02;12.60;;;-0.20;99.90;;;-1.97;100.00;99578.47;4819264;29;20541;-71
2022/11/21 01:38:53;;;;;;;24.60;13.55;;;-0.20;99.90;;;-1.96;100.00;99570.25;4818971;29;20076;-71
2022/11/21 01:41:27;;;;;;;23.38;13.57;;;-0.20;99.90;;;-1.98;100.00;99566.91;4819448;29;20742;-71
2022/11/21 01:43:53;;;;;;;23.15;12.95;;;-0.20;99.90;;;-2.01;100.00;99569.91;4818783;29;20035;-71
2022/11/21 01:46:20;;;;;;;25.83;13.65;;;-0.20;99.90;;;-2.02;100.00;99570.91;4819032;29;20046;-71
2022/11/21 01:48:55;;;;;;;23.88;12.93;;;-0.20;99.90;;;-2.06;100.00;99577.59;4818799;29;20553;-71
2022/11/21 01:52:13;;;;;;;21.75;13.07;;;-0.30;99.90;;;-2.05;100.00;99582.75;4824529;29;20035;-71
2022/11/21 01:54:48;;;;;;;23.10;12.90;;;-0.30;99.90;;;-2.04;100.00;99583.59;4823353;29;20057;-71
2022/11/21 01:57:18;;;;;;;23.40;12.85;;;-0.20;99.90;;;-2.04;100.00;99581.75;4818999;29;20072;-72
2022/11/21 02:00:39;;;;;;;24.20;13.30;;;-0.20;99.90;;;-2.03;100.00;99580.75;4818654;29;20053;-72
2022/11/21 02:03:14;;;;;;;23.10;12.85;;;-0.20;99.90;;;-2.05;100.00;99579.25;4821865;29;20054;-72
2022/11/21 02:05:40;;;;;;;24.88;13.27;;;-0.30;99.90;;;-2.07;100.00;99579.41;4818839;29;20042;-72
2022/11/21 02:08:18;;;;;;;25.10;14.50;;;-0.30;99.90;;;-1.98;100.00;99590.97;4818765;29;20471;-73
2022/11/21 02:11:03;;;;;;;23.58;14.15;;;-0.20;99.90;;;-1.96;100.00;99580.97;4819049;29;20031;-72
2022/11/21 02:13:29;;;;;;;25.10;13.90;;;-0.20;99.90;;;-1.97;100.00;99578.47;4818858;29;20547;-72
2022/11/21 02:15:55;;;;;;;24.20;13.40;;;-0.20;99.90;;;-2.11;100.00;99566.53;4818924;29;20077;-73
2022/11/21 02:18:21;;;;;;;24.73;13.80;;;-0.30;99.90;;;-2.19;100.00;99583.38;4818720;29;20371;-72
2022/11/21 02:20:56;;;;;;;25.13;13.82;;;-0.40;99.90;;;-2.43;100.00;99578.72;4818188;29;20041;-72
2022/11/21 02:23:36;;;;;;;26.05;13.38;;;-0.60;99.90;;;-2.40;100.00;99587.28;4818855;29;20046;-72
2022/11/21 02:26:02;;;;;;;25.02;13.13;;;-0.70;99.90;;;-2.46;100.00;99593.25;4818833;29;20094;-72
2022/11/21 02:28:28;;;;;;;24.88;13.40;;;-0.70;99.90;;;-2.60;100.00;99590.16;4821825;29;20038;-72
2022/11/21 02:30:54;;;;;;;29.67;15.00;;;-0.80;99.90;;;-2.75;100.00;99592.56;4828702;29;20038;-71
2022/11/21 02:33:20;;;;;;;28.65;14.32;;;-0.90;99.90;;;-2.90;100.00;99575.44;4821842;29;20551;-74
2022/11/21 02:35:59;;;;;;;26.92;13.25;;;-1.00;99.90;;;-2.87;100.00;99596.50;4822330;29;20192;-71
2022/11/21 02:38:36;;;;;;;27.77;14.07;;;-1.10;99.90;;;-2.98;100.00;99592.22;4822636;29;20030;-71
2022/11/21 02:41:13;;;;;;;27.35;14.48;;;-1.10;99.90;;;-3.06;100.00;99582.31;4822088;29;20061;-72
2022/11/21 02:43:50;;;;;;;26.65;13.93;;;-1.20;99.90;;;-3.17;100.00;99574.56;4826808;29;20034;-72
2022/11/21 02:46:15;;;;;;;27.02;14.13;;;-1.30;99.90;;;-3.25;100.00;99571.81;4821815;29;20037;-74
2022/11/21 02:48:42;;;;;;;29.80;14.60;;;-1.40;99.90;;;-3.29;100.00;99579.28;4821589;29;20034;-71
2022/11/21 02:51:08;;;;;;;33.28;16.02;;;-1.50;99.90;;;-3.36;100.00;99581.72;4821406;29;20041;-72
2022/11/21 02:53:33;;;;;;;31.60;15.35;;;-1.60;99.90;;;-3.44;100.00;99572.81;4821705;29;20030;-71
2022/11/21 02:55:59;;;;;;;31.13;16.02;;;-1.60;99.90;;;-3.41;100.00;99589.34;4821382;29;20383;-72
2022/11/21 02:58:25;;;;;;;27.23;15.43;;;-1.60;99.90;;;-3.41;100.00;99597.34;4821998;29;20034;-71
2022/11/21 03:00:51;;;;;;;32.92;14.95;;;-1.60;99.90;;;-3.43;100.00;99594.00;4821863;29;20046;-72
2022/11/21 03:03:17;;;;;;;31.45;15.48;;;-1.60;99.90;;;-3.49;100.00;99600.78;4821771;29;20407;-72
2022/11/21 03:05:42;;;;;;;32.88;15.27;;;-1.60;99.90;;;-3.56;100.00;99594.38;4821690;29;20095;-72
2022/11/21 03:08:09;;;;;;;32.83;16.50;;;-1.70;99.90;;;-3.57;100.00;99584.69;4821574;29;20117;-72
2022/11/21 03:10:35;;;;;;;32.72;15.82;;;-1.70;99.90;;;-3.59;100.00;99593.84;4821409;29;20058;-72
2022/11/21 03:13:01;;;;;;;34.88;17.20;;;-1.70;99.90;;;-3.64;100.00;99591.59;4821652;29;20042;-72
2022/11/21 03:15:33;;;;;;;36.03;17.27;;;-1.80;99.90;;;-3.66;100.00;99597.09;4821736;29;20034;-73
2022/11/21 03:18:01;;;;;;;33.78;17.20;;;-1.80;99.90;;;-3.70;100.00;99590.41;4821763;29;20033;-72
2022/11/21 03:20:29;;;;;;;35.28;16.92;;;-1.80;99.90;;;-3.74;100.00;99597.00;4819751;29;20049;-72
2022/11/21 03:22:55;;;;;;;36.75;17.35;;;-1.90;99.90;;;-3.77;100.00;99598.16;4821297;29;20069;-72
2022/11/21 03:25:20;;;;;;;37.10;17.58;;;-1.90;99.90;;;-3.78;100.00;99598.28;4821182;29;20042;-72
2022/11/21 03:27:51;;;;;;;40.00;18.85;;;-1.90;99.90;;;-3.74;100.00;99601.50;4820976;29;20041;-72
2022/11/21 03:30:17;;;;;;;39.50;17.95;;;-1.90;99.90;;;-3.79;100.00;99596.63;4821044;29;20130;-71
2022/11/21 03:32:42;;;;;;;39.05;19.33;;;-1.90;99.90;;;-3.77;100.00;99606.16;4820895;29;20114;-72
2022/11/21 03:35:08;;;;;;;34.22;17.20;;;-1.90;99.90;;;-3.76;100.00;99604.31;4820893;29;20506;-72
2022/11/21 03:37:34;;;;;;;38.00;18.63;;;-1.90;99.90;;;-3.87;100.00;99599.19;4820846;29;20486;-72
2022/11/21 03:39:59;;;;;;;40.47;19.23;;;-2.00;99.90;;;-3.98;100.00;99593.09;4820548;29;20030;-72
2022/11/21 03:42:25;;;;;;;33.25;18.00;;;-2.10;99.90;;;-4.07;100.00;99599.28;4820644;29;20046;-72
2022/11/21 03:44:51;;;;;;;34.95;17.25;;;-2.20;99.90;;;-4.27;100.00;99611.84;4820618;29;20049;-72
2022/11/21 03:47:17;;;;;;;32.78;16.63;;;-2.40;99.90;;;-4.51;100.00;99608.72;4820488;29;20327;-71
2022/11/21 03:49:42;;;;;;;30.35;16.65;;;-2.60;99.90;;;-4.61;100.00;99618.53;4820680;29;20038;-73
2022/11/21 03:52:08;;;;;;;31.40;16.90;;;-2.70;99.90;;;-4.69;100.00;99618.41;4820590;29;20035;-72
2022/11/21 03:54:34;;;;;;;37.20;17.80;;;-2.80;99.90;;;-4.76;100.00;99626.13;4820587;29;20034;-72
2022/11/21 03:56:59;;;;;;;34.92;17.20;;;-2.90;99.90;;;-4.80;100.00;99627.41;4820298;29;20035;-72
2022/11/21 03:59:25;;;;;;;38.13;17.83;;;-2.90;99.90;;;-4.68;100.00;99625.41;4820529;29;20041;-72
2022/11/21 04:01:51;;;;;;;37.88;18.08;;;-2.90;99.90;;;-4.68;100.00;99630.75;4820469;29;20414;-72
2022/11/21 04:04:17;;;;;;;33.20;17.67;;;-2.90;99.90;;;-4.81;100.00;99628.38;4820307;29;20076;-72
2022/11/21 04:06:43;;;;;;;39.72;17.08;;;-3.00;99.90;;;-4.95;100.00;99632.31;4820229;29;20537;-72
2022/11/21 04:09:08;;;;;;;34.08;16.98;;;-3.10;99.90;;;-5.05;100.00;99632.31;4820302;29;20117;-72
2022/11/21 04:11:34;;;;;;;37.47;18.40;;;-3.20;99.90;;;-5.13;100.00;99619.72;4820341;29;20113;-72
2022/11/21 04:14:00;;;;;;;36.08;17.65;;;-3.30;99.90;;;-5.09;100.00;99631.75;4818291;29;20073;-72
2022/11/21 04:16:25;;;;;;;36.45;17.45;;;-3.30;99.90;;;-5.09;100.00;99633.59;4818592;29;20061;-71
2022/11/21 04:18:51;;;;;;;41.75;18.95;;;-3.20;99.90;;;-5.18;100.00;99621.09;4820328;29;20042;-71
2022/11/21 04:21:17;;;;;;;36.15;17.05;;;-3.30;99.90;;;-5.24;100.00;99631.34;4820883;29;20037;-71
2022/11/21 04:23:43;;;;;;;34.85;17.95;;;-3.40;99.90;;;-5.26;100.00;99624.50;4819831;29;20036;-72
2022/11/21 04:26:08;;;;;;;35.25;17.52;;;-3.40;99.90;;;-5.26;100.00;99627.16;4819811;29;20697;-70
2022/11/21 04:28:34;;;;;;;36.47;18.08;;;-3.40;99.90;;;-5.21;100.00;99638.19;4820512;29;20041;-70
2022/11/21 04:31:05;;;;;;;41.22;18.58;;;-3.30;99.90;;;-5.23;100.00;99635.66;4826334;29;20441;-71
2022/11/21 04:33:31;;;;;;;36.70;17.73;;;-3.40;99.90;;;-5.27;100.00;99628.94;4820340;29;20113;-70
2022/11/21 04:35:57;;;;;;;41.08;18.88;;;-3.40;99.90;;;-5.35;100.00;99626.16;4820011;29;20071;-71
2022/11/21 04:38:23;;;;;;;34.53;17.08;;;-3.40;99.90;;;-5.42;100.00;99633.84;4820536;29;20034;-72
2022/11/21 04:40:49;;;;;;;37.42;17.63;;;-3.50;99.90;;;-5.50;100.00;99628.38;4820283;29;20070;-72
2022/11/21 04:43:15;;;;;;;35.25;17.30;;;-3.60;99.90;;;-5.55;100.00;99635.94;4820804;29;20046;-71
2022/11/21 04:45:40;;;;;;;37.92;18.40;;;-3.70;99.90;;;-5.56;100.00;99635.09;4819780;29;20074;-71
2022/11/21 04:48:06;;;;;;;42.40;18.52;;;-3.70;99.90;;;-5.47;100.00;99635.22;4820185;29;20034;-71
2022/11/21 04:50:32;;;;;;;38.70;18.23;;;-3.60;99.90;;;-5.47;100.00;99627.25;4819879;29;20089;-71
2022/11/21 04:52:58;;;;;;;40.42;17.70;;;-3.60;99.90;;;-5.52;100.00;99625.03;4819683;29;20030;-72
2022/11/21 04:55:29;;;;;;;43.97;18.98;;;-3.60;99.90;;;-5.53;100.00;99624.16;4820184;29;20045;-72
2022/11/21 04:57:54;;;;;;;39.45;18.92;;;-3.60;99.90;;;-5.52;100.00;99625.84;4819951;29;20456;-72
2022/11/21 05:00:20;;;;;;;36.95;17.08;;;-3.60;99.90;;;-5.49;100.00;99630.88;4819888;29;20064;-72
2022/11/21 05:02:46;;;;;;;45.45;18.67;;;-3.50;99.90;;;-5.43;100.00;99634.00;4820291;29;20034;-72
2022/11/21 05:05:12;;;;;;;41.55;19.73;;;-3.50;99.90;;;-5.46;100.00;99640.41;4819768;29;20391;-71
2022/11/21 05:07:38;;;;;;;46.65;20.90;;;-3.50;99.90;;;-5.48;100.00;99637.06;4824570;29;20038;-71
2022/11/21 05:10:05;;;;;;;43.80;19.23;;;-3.50;99.90;;;-5.54;100.00;99632.31;4819602;29;20047;-72
2022/11/21 05:15:16;;;;;;;43.60;19.02;;;-3.70;99.90;;;-5.61;100.00;99631.16;4819621;29;20030;-71
2022/11/21 05:17:42;;;;;;;47.15;19.17;;;-3.70;99.90;;;-5.67;100.00;99633.38;4817934;29;20422;-72
2022/11/21 05:20:09;;;;;;;43.25;18.67;;;-3.80;99.90;;;-5.66;100.00;99637.72;4819654;29;20034;-72
2022/11/21 05:22:34;;;;;;;56.90;19.90;;;-3.70;99.90;;;-5.66;100.00;99634.22;4819760;29;20034;-73
2022/11/21 05:25:00;;;;;;;71.10;20.88;;;-3.80;99.90;;;-5.70;100.00;99638.13;4819593;29;20045;-72
2022/11/21 05:27:26;;;;;;;42.50;19.10;;;-3.80;99.90;;;-5.74;100.00;99637.56;4819753;29;20034;-72
2022/11/21 05:29:52;;;;;;;42.88;18.88;;;-3.80;99.90;;;-5.77;100.00;99638.66;4820120;29;20443;-72
2022/11/21 05:32:18;;;;;;;39.50;17.42;;;-3.90;99.90;;;-5.87;100.00;99642.25;4819747;29;20038;-73
2022/11/21 05:34:43;;;;;;;41.20;18.10;;;-4.00;99.90;;;-5.97;100.00;99637.78;4819060;29;20141;-72
2022/11/21 05:37:09;;;;;;;38.47;16.85;;;-4.10;99.90;;;-6.12;100.00;99629.38;4819370;29;20553;-72
2022/11/21 05:39:35;;;;;;;38.33;18.00;;;-4.20;99.90;;;-6.10;100.00;99647.81;4819604;29;20384;-72
2022/11/21 05:42:00;;;;;;;34.95;16.42;;;-4.20;99.90;;;-6.10;100.00;99642.50;4819242;29;20081;-70
2022/11/21 05:44:26;;;;;;;38.67;18.42;;;-4.20;99.90;;;-5.96;100.00;99642.09;4819430;29;20043;-70
2022/11/21 05:46:52;;;;;;;43.47;18.45;;;-4.10;99.90;;;-5.74;100.00;99637.56;4819156;29;20046;-72
2022/11/21 05:49:17;;;;;;;44.58;18.70;;;-3.90;99.90;;;-5.69;100.00;99635.34;4819232;29;20030;-73
2022/11/21 05:51:43;;;;;;;43.35;18.60;;;-3.90;99.90;;;-5.68;100.00;99636.19;4819743;29;20045;-73
2022/11/21 05:54:15;;;;;;;38.47;18.40;;;-3.90;99.90;;;-5.85;100.00;99633.19;4819266;29;20124;-71
2022/11/21 05:56:41;;;;;;;40.38;18.48;;;-4.00;99.90;;;-5.98;100.00;99630.78;4819335;29;20189;-72
2022/11/21 05:59:09;;;;;;;36.28;16.60;;;-4.10;99.90;;;-6.09;100.00;99629.09;4820023;29;20034;-71
2022/11/21 06:04:20;;;;;;;31.50;14.55;;;-4.30;99.90;;;-6.37;100.00;99639.47;4821557;29;20038;-73
2022/11/21 06:06:46;;;;;;;35.55;16.92;;;-4.50;99.90;;;-6.43;100.00;99641.78;4834855;29;20044;-72
2022/11/21 06:09:12;;;;;;;39.63;16.55;;;-4.60;99.90;;;-6.30;100.00;99639.78;4822157;29;20038;-72
2022/11/21 06:11:38;;;;;;;38.58;17.33;;;-4.60;99.90;;;-6.29;100.00;99641.47;4822305;29;20397;-72
2022/11/21 06:14:03;;;;;;;35.95;16.55;;;-4.50;99.90;;;-6.33;100.00;99642.69;4822319;29;20049;-73
2022/11/21 06:16:29;;;;;;;34.47;17.30;;;-4.50;99.90;;;-6.32;100.00;99620.47;4822921;29;20085;-72
2022/11/21 06:18:55;;;;;;;37.95;17.25;;;-4.40;99.90;;;-6.02;100.00;99633.88;4822339;29;20035;-73
2022/11/21 06:21:24;;;;;;;40.97;17.35;;;-4.20;99.90;;;-5.87;100.00;99643.13;4822565;29;20030;-73
2022/11/21 06:23:53;;;;;;;41.47;17.58;;;-4.10;99.90;;;-5.88;100.00;99640.59;4822453;29;20031;-74
2022/11/21 06:26:23;;;;;;;36.70;17.35;;;-4.00;99.90;;;-6.00;100.00;99631.88;4822455;29;20114;-74
2022/11/21 06:28:50;;;;;;;36.58;17.42;;;-4.10;99.90;;;-6.12;100.00;99644.44;4824275;29;20034;-74
2022/11/21 06:31:23;;;;;;;36.97;16.80;;;-4.20;99.90;;;-6.23;100.00;99642.75;4822772;29;20034;-75
2022/11/21 06:33:57;;;;;;;34.63;16.30;;;-4.30;99.90;;;-6.27;100.00;99647.47;4821275;29;20038;-73
2022/11/21 06:36:24;;;;;;;38.97;18.02;;;-4.30;99.90;;;-6.35;100.00;99647.31;4822224;29;20069;-74
2022/11/21 06:38:53;;;;;;;45.03;20.10;;;-4.40;99.90;;;-6.48;100.00;99644.84;4822348;29;20138;-73
2022/11/21 06:41:23;;;;;;;44.60;19.25;;;-4.50;99.90;;;-6.50;100.00;99652.09;4834036;29;20288;-74
2022/11/21 06:43:49;;;;;;;48.97;20.15;;;-4.50;99.90;;;-6.52;100.00;99648.72;4832874;29;20053;-73
2022/11/21 06:46:15;;;;;;;62.58;21.98;;;-4.50;99.90;;;-6.58;100.00;99655.41;4822011;29;20486;-73
2022/11/21 06:48:42;;;;;;;53.45;17.67;;;-4.50;99.90;;;-6.58;100.00;99659.88;4821912;29;20455;-73
2022/11/21 06:51:19;;;;;;;40.28;18.55;;;-4.50;99.90;;;-6.57;100.00;99656.25;4835501;29;20034;-73
2022/11/21 06:53:47;;;;;;;41.97;18.17;;;-4.50;99.90;;;-6.57;100.00;99659.75;4821902;29;20117;-72
2022/11/21 06:56:14;;;;;;;41.03;17.20;;;-4.60;99.90;;;-6.62;100.00;99666.41;4827192;29;20033;-75
2022/11/21 06:58:40;;;;;;;36.97;17.05;;;-4.70;99.90;;;-6.70;100.00;99657.28;4822092;29;20665;-75
2022/11/21 07:01:09;;;;;;;48.67;18.75;;;-4.70;99.90;;;-6.72;100.00;99655.72;4821397;29;20038;-74
2022/11/21 07:03:35;;;;;;;49.85;18.92;;;-4.80;99.90;;;-6.73;100.00;99657.56;4822022;29;20038;-75
2022/11/21 07:06:02;;;;;;;51.92;20.38;;;-4.80;99.90;;;-6.92;100.00;99631.72;4823578;29;20035;-74
2022/11/21 07:08:31;;;;;;;54.25;20.25;;;-4.80;99.90;;;-6.78;100.00;99665.03;4826870;29;20524;-75
2022/11/21 07:11:06;;;;;;;57.70;20.15;;;-4.80;99.90;;;-6.79;100.00;99673.97;4822170;29;20046;-74
2022/11/21 07:13:32;;;;;;;48.25;19.25;;;-4.80;99.90;;;-6.82;100.00;99671.56;4831891;29;20041;-74
2022/11/21 07:16:07;;;;;;;67.53;21.13;;;-4.80;99.90;;;-6.82;100.00;99669.78;4831273;29;20077;-73
2022/11/21 07:18:34;;;;;;;45.97;19.88;;;-4.90;99.90;;;-6.79;100.00;99681.91;4830680;29;20034;-74
2022/11/21 07:21:03;;;;;;;73.28;21.77;;;-4.80;99.90;;;-6.77;100.00;99679.97;4833910;29;20044;-74
2022/11/21 07:23:30;;;;;;;49.33;20.65;;;-4.70;99.90;;;-6.71;100.00;99683.94;4829681;29;20057;-74
2022/11/21 07:26:03;;;;;;;50.67;20.73;;;-4.70;99.90;;;-6.59;100.00;99685.56;4821531;29;20049;-74
2022/11/21 07:28:30;;;;;;;52.90;20.27;;;-4.60;99.90;;;-6.53;100.00;99685.06;4822118;29;20035;-74
2022/11/21 07:30:57;;;;;;;56.85;20.85;;;-4.60;99.90;;;-6.40;100.00;99694.63;4828248;29;20410;-74
2022/11/21 07:33:23;;;;;;;55.03;21.40;;;-4.50;99.90;;;-6.36;100.00;99691.56;4818755;29;20041;-73
2022/11/21 07:35:49;;;;;;;94.00;23.83;;;-4.40;99.90;;;-6.35;100.00;99689.78;4826678;29;20046;-71
2022/11/21 07:38:14;;;;;;;54.45;21.20;;;-4.40;99.90;;;-6.33;100.00;99689.63;4820934;29;20091;-72
2022/11/21 07:40:40;;;;;;;53.90;22.35;;;-4.40;99.90;;;-6.28;100.00;99698.03;4804709;29;20049;-71
2022/11/21 07:43:06;;;;;;;46.08;20.02;;;-4.30;99.90;;;-6.15;100.00;99684.56;4822861;29;20456;-72
2022/11/21 07:45:33;;;;;;;51.47;19.70;;;-4.20;99.90;;;-5.94;100.00;99685.31;4821016;29;20078;-73
2022/11/21 07:48:02;;;;;;;54.47;20.55;;;-4.00;99.90;;;-5.77;100.00;99678.53;4821021;29;20042;-72
2022/11/21 07:50:28;;;;;;;56.88;21.52;;;-3.80;99.90;;;-5.61;100.00;99671.00;4820573;29;20042;-74
2022/11/21 07:53:04;;;;;;;50.38;21.35;;;-3.70;99.90;;;-5.43;100.00;99676.53;4824732;29;20179;-74
2022/11/21 07:55:30;;;;;;;56.33;22.85;;;-3.50;99.90;;;-5.29;100.00;99673.47;4820583;29;20125;-74
2022/11/21 07:58:09;;;;;;;68.07;24.02;;;-3.40;99.90;;;-5.21;100.00;99668.28;4820718;29;20106;-75
2022/11/21 08:00:39;;;;;;;53.67;20.95;;;-3.30;99.90;;;-5.01;100.00;99667.47;4824209;29;20049;-74
2022/11/21 08:03:08;;;;;;;62.35;22.85;;;-3.10;99.90;;;-4.88;100.00;99670.69;4828935;29;20470;-74
2022/11/21 08:05:39;;;;;;;64.65;24.55;;;-3.00;99.90;;;-4.78;100.00;99670.69;4827157;29;20034;-73
2022/11/21 08:08:07;;;;;;;61.10;23.65;;;-2.90;99.90;;;-4.74;100.00;99668.59;4825047;29;20159;-73
2022/11/21 08:10:37;;;;;;;59.25;23.90;;;-2.80;99.90;;;-4.73;100.00;99663.09;4825951;29;20124;-73
2022/11/21 08:13:02;;;;;;;63.90;22.48;;;-2.80;99.90;;;-4.62;100.00;99672.75;4824223;29;20215;-75
2022/11/21 08:15:28;;;;;;;64.13;23.85;;;-2.70;99.90;;;-4.47;100.00;99678.47;4828381;29;20033;-73
2022/11/21 08:17:54;;;;;;;60.72;24.10;;;-2.60;99.90;;;-4.35;100.00;99679.16;4828702;29;20042;-76
2022/11/21 08:20:20;;;;;;;59.38;23.58;;;-2.50;99.90;;;-4.23;100.00;99674.50;4831464;29;20042;-74
2022/11/21 08:22:46;;;;;;;58.35;23.77;;;-2.30;99.90;;;-4.10;100.00;99679.50;4820201;29;20110;-74
2022/11/21 08:25:11;;;;;;;54.05;23.60;;;-2.20;99.90;;;-4.09;100.00;99679.38;4819869;29;20065;-73
2022/11/21 08:27:38;;;;;;;63.65;24.15;;;-2.20;99.90;;;-3.97;100.00;99671.19;4821180;29;20038;-74
2022/11/21 08:30:10;;;;;;;57.35;23.98;;;-2.10;99.90;;;-3.84;100.00;99678.84;4834593;29;20048;-73
2022/11/21 08:32:36;;;;;;;60.58;24.13;;;-2.00;99.90;;;-3.76;100.00;99673.63;4820043;29;20167;-74
2022/11/21 08:35:03;;;;;;;62.65;23.80;;;-1.90;99.90;;;-3.64;100.00;99684.94;4820389;29;20133;-74
2022/11/21 08:37:29;;;;;;;63.88;24.08;;;-1.80;99.90;;;-3.52;100.00;99678.41;4828078;29;20048;-74
2022/11/21 08:39:57;;;;;;;62.50;25.67;;;-1.70;99.90;;;-3.38;100.00;99677.06;4827339;29;20037;-75
2022/11/21 08:42:24;;;;;;;58.05;23.27;;;-1.60;99.90;;;-3.23;100.00;99685.41;4831804;29;20129;-74
2022/11/21 08:44:50;;;;;;;59.90;24.93;;;-1.40;99.90;;;-3.08;100.00;99683.06;4829260;29;20305;-74
2022/11/21 08:47:16;;;;;;;68.22;25.23;;;-1.30;99.90;;;-2.94;100.00;99688.84;4826433;29;20495;-73
2022/11/21 08:49:42;;;;;;;58.60;24.98;;;-1.20;99.90;;;-2.84;100.00;99684.28;4832900;29;20067;-74
2022/11/21 08:52:08;;;;;;;62.53;24.67;;;-1.10;99.90;;;-2.76;100.00;99688.84;4822627;29;20566;-74
2022/11/21 08:54:33;;;;;;;62.42;24.60;;;-1.10;99.90;;;-2.68;100.00;99693.41;4818703;29;20030;-74
2022/11/21 08:56:59;;;;;;;56.42;25.60;;;-1.00;99.90;;;-2.60;100.00;99696.16;4818301;29;20086;-75
2022/11/21 08:59:25;;;;;;;65.20;26.27;;;-0.90;99.90;;;-2.59;100.00;99695.16;4821004;29;20083;-75
2022/11/21 09:01:51;;;;;;;61.28;26.73;;;-0.90;99.90;;;-2.43;100.00;99691.78;4824733;29;20633;-76
2022/11/21 09:04:18;;;;;;;59.95;25.08;;;-0.70;99.90;;;-2.25;100.00;99706.94;4820436;29;20049;-75
2022/11/21 09:06:43;;;;;;;65.45;25.50;;;-0.60;99.90;;;-2.07;100.00;99710.38;4820319;29;20090;-75
2022/11/21 09:09:09;;;;;;;62.85;26.52;;;-0.50;99.90;;;-2.00;100.00;99707.94;4823744;29;20039;-73
2022/11/21 09:11:36;;;;;;;66.20;25.92;;;-0.40;99.90;;;-1.90;100.00;99713.16;4818327;29;20406;-73
2022/11/21 09:19:32;;;;;;;61.60;26.85;;;0.10;99.90;;;-1.45;100.00;99733.47;4818842;29;20042;-74
2022/11/21 09:22:00;;;;;;;63.30;26.90;;;0.20;99.90;;;-1.29;100.00;99739.84;4818971;29;20034;-73
2022/11/21 09:24:26;;;;;;;62.50;26.30;;;0.40;99.90;;;-1.11;100.00;99741.59;4823026;29;20061;-76
2022/11/21 09:26:52;;;;;;;59.75;26.80;;;0.60;99.90;;;-0.90;100.00;99736.63;4838629;29;20451;-74
2022/11/21 09:29:18;;;;;;;60.50;26.10;;;1.00;99.90;;;-0.69;100.00;99743.34;4822603;29;20038;-74
2022/11/21 09:31:44;;;;;;;56.38;24.52;;;1.40;99.90;;;-0.54;100.00;99737.34;4826431;29;20035;-73
2022/11/21 09:34:10;;;;;;;49.28;23.27;;;2.10;99.90;;;-0.30;100.00;99731.13;4824465;29;20046;-74
2022/11/21 09:36:36;;;;;;;52.10;23.42;;;2.50;99.90;;;-0.10;100.00;99730.78;4825485;29;20042;-74
2022/11/21 09:39:03;;;;;;;44.65;22.17;;;3.10;99.90;;;0.31;100.00;99725.34;4816881;29;20294;-74
2022/11/21 09:42:12;;;;;;;47.42;21.45;;;3.80;99.90;;;0.85;100.00;99716.56;4817806;29;20062;-76
2022/11/21 09:45:14;;;;;;;45.63;19.90;;;4.20;99.90;;;1.36;98.70;99733.22;4817270;29;20040;-75
2022/11/21 09:47:51;;;;;;;45.63;21.70;;;4.10;99.90;;;1.89;90.67;99717.13;4824625;29;20048;-74
2022/11/21 09:50:34;;;;;;;46.58;19.80;;;4.30;99.90;;;2.09;87.64;99712.06;4836928;29;20065;-74
2022/11/21 09:53:14;;;;;;;43.00;20.25;;;4.50;99.90;;;2.53;84.42;99723.88;4817202;29;20038;-74
2022/11/21 09:55:48;;;;;;;38.53;19.50;;;4.60;99.90;;;2.92;82.86;99735.34;4817463;29;20542;-74
2022/11/21 09:58:30;;;;;;;41.67;20.77;;;4.50;99.90;;;4.06;75.26;99719.41;4819993;29;20038;-75
2022/11/21 10:00:56;;;;;;;38.80;18.35;;;5.10;99.90;;;3.92;70.37;99726.56;4821462;29;20123;-74
2022/11/21 10:03:28;;;;;;;38.90;18.15;;;5.20;99.90;;;3.56;73.47;99728.34;4817038;29;20058;-75
2022/11/21 10:06:15;;;;;;;38.35;19.23;;;4.90;99.90;;;3.41;73.23;99720.31;4817605;29;20054;-74
2022/11/21 10:09:14;;;;;;;35.35;16.98;;;4.80;99.90;;;3.37;74.92;99726.28;4827488;29;20050;-75
2022/11/21 10:12:36;;;;;;;33.90;17.50;;;4.80;99.90;;;4.53;69.37;99727.78;4823727;29;20050;-73
2022/11/21 10:15:33;;;;;;;35.67;18.23;;;5.90;99.90;;;4.25;69.36;99730.53;4816808;29;20151;-73
2022/11/21 10:18:39;;;;;;;31.02;17.02;;;6.50;99.90;;;4.96;66.51;99718.59;4835690;29;20050;-73